createdAt,value
2022-11-20T00:01:29.579Z,11.70
2022-11-20T00:03:58.684Z,11.50
2022-11-20T00:06:27.109Z,10.87
2022-11-20T00:08:57.141Z,12.33
2022-11-20T00:11:25.818Z,10.50
2022-11-20T00:13:55.099Z,13.90
2022-11-20T00:16:23.758Z,13.93
2022-11-20T00:18:51.425Z,11.83
2022-11-20T00:21:22.141Z,12.68
2022-11-20T00:23:49.956Z,10.07
2022-11-20T00:26:18.370Z,14.73
2022-11-20T00:28:49.768Z,12.83
2022-11-20T00:31:17.032Z,12.60
2022-11-20T00:33:45.022Z,13.80
2022-11-20T00:36:23.094Z,13.40
2022-11-20T00:38:54.592Z,16.27
2022-11-20T00:41:22.002Z,12.40
2022-11-20T00:43:48.654Z,11.68
2022-11-20T00:46:20.948Z,11.27
2022-11-20T00:48:48.027Z,10.47
2022-11-20T00:51:17.081Z,11.03
2022-11-20T00:53:44.182Z,11.10
2022-11-20T00:56:16.827Z,12.93
2022-11-20T00:58:45.648Z,10.07
2022-11-20T01:01:21.225Z,12.07
2022-11-20T01:03:50.483Z,12.77
2022-11-20T01:06:18.616Z,12.32
2022-11-20T01:08:46.413Z,13.23
2022-11-20T01:11:25.135Z,14.70
2022-11-20T01:13:53.337Z,13.30
2022-11-20T01:16:22.923Z,15.53
2022-11-20T01:18:52.160Z,16.10
2022-11-20T01:21:27.539Z,13.30
2022-11-20T01:23:54.634Z,12.97
2022-11-20T01:26:26.805Z,13.87
2022-11-20T01:28:54.452Z,15.00
2022-11-20T01:31:25.608Z,17.60
2022-11-20T01:33:57.864Z,13.77
2022-11-20T01:36:27.493Z,15.93
2022-11-20T01:38:55.941Z,17.67
2022-11-20T01:41:42.360Z,14.67
2022-11-20T01:44:12.910Z,15.02
2022-11-20T01:46:43.338Z,15.60
2022-11-20T01:49:15.719Z,12.97
2022-11-20T01:51:44.786Z,14.27
2022-11-20T01:54:17.295Z,14.00
2022-11-20T01:56:46.568Z,15.07
2022-11-20T01:59:16.110Z,17.00
2022-11-20T02:01:42.816Z,14.77
2022-11-20T02:04:10.884Z,16.00
2022-11-20T02:06:45.215Z,13.60
2022-11-20T02:09:12.516Z,15.03
2022-11-20T02:11:39.216Z,17.43
2022-11-20T02:14:05.923Z,12.13
2022-11-20T02:16:37.336Z,13.10
2022-11-20T02:19:08.799Z,15.40
2022-11-20T02:21:46.055Z,12.83
2022-11-20T02:24:14.862Z,12.43
2022-11-20T02:26:54.675Z,13.43
2022-11-20T02:29:33.406Z,14.07
2022-11-20T02:32:02.305Z,13.43
2022-11-20T02:34:29.809Z,15.00
2022-11-20T02:36:58.262Z,13.90
2022-11-20T02:39:28.100Z,13.87
2022-11-20T02:41:56.621Z,14.73
2022-11-20T02:44:23.258Z,12.80
2022-11-20T02:46:49.912Z,16.57
2022-11-20T02:49:17.723Z,12.60
2022-11-20T02:51:44.596Z,11.37
2022-11-20T02:54:11.266Z,13.30
2022-11-20T02:56:39.819Z,13.60
2022-11-20T02:59:06.581Z,13.03
2022-11-20T03:01:33.251Z,13.83
2022-11-20T03:03:59.914Z,15.93
2022-11-20T03:06:26.502Z,12.33
2022-11-20T03:08:53.136Z,17.53
2022-11-20T03:11:19.884Z,13.13
2022-11-20T03:13:46.631Z,14.57
2022-11-20T03:16:18.807Z,18.57
2022-11-20T03:18:46.117Z,20.80
2022-11-20T03:21:14.746Z,17.47
2022-11-20T03:23:42.153Z,19.83
2022-11-20T03:26:23.556Z,22.20
2022-11-20T03:28:52.399Z,25.40
2022-11-20T03:31:21.747Z,17.50
2022-11-20T03:33:48.736Z,22.57
2022-11-20T03:36:17.581Z,22.33
2022-11-20T03:38:44.898Z,21.10
2022-11-20T03:41:20.182Z,19.37
2022-11-20T03:43:51.382Z,20.53
2022-11-20T03:46:18.427Z,17.00
2022-11-20T03:48:50.128Z,19.97
2022-11-20T03:51:19.502Z,17.00
2022-11-20T03:53:48.470Z,17.13
2022-11-20T03:56:17.457Z,16.20
2022-11-20T03:58:44.813Z,15.97
2022-11-20T04:01:15.590Z,16.90
2022-11-20T04:03:43.916Z,14.87
2022-11-20T04:06:15.922Z,15.17
2022-11-20T04:08:43.171Z,17.13
2022-11-20T04:11:12.927Z,29.58
2022-11-20T04:13:40.422Z,18.90
2022-11-20T04:16:08.489Z,22.73
2022-11-20T04:18:35.773Z,22.47
2022-11-20T04:21:03.021Z,22.60
2022-11-20T04:23:29.967Z,19.47
2022-11-20T04:26:08.892Z,19.87
2022-11-20T04:28:36.350Z,20.53
2022-11-20T04:31:08.127Z,17.47
2022-11-20T04:33:35.924Z,16.90
2022-11-20T04:36:05.280Z,15.37
2022-11-20T04:38:32.240Z,16.57
2022-11-20T04:41:04.180Z,18.33
2022-11-20T04:43:31.235Z,18.27
2022-11-20T04:45:58.592Z,18.17
2022-11-20T04:48:26.538Z,16.60
2022-11-20T04:50:53.317Z,15.20
2022-11-20T04:53:21.114Z,17.17
2022-11-20T04:55:47.823Z,15.60
2022-11-20T04:58:14.610Z,17.13
2022-11-20T05:00:41.526Z,19.20
2022-11-20T05:03:08.645Z,15.53
2022-11-20T05:05:35.826Z,14.57
2022-11-20T05:08:02.475Z,16.53
2022-11-20T05:10:29.620Z,15.67
2022-11-20T05:12:57.721Z,14.27
2022-11-20T05:15:24.358Z,16.23
2022-11-20T05:17:52.393Z,16.67
2022-11-20T05:20:19.801Z,16.33
2022-11-20T05:22:46.776Z,14.10
2022-11-20T05:25:13.482Z,15.67
2022-11-20T05:27:40.077Z,16.30
2022-11-20T05:30:07.522Z,14.47
2022-11-20T05:32:34.106Z,13.37
2022-11-20T05:35:00.719Z,17.40
2022-11-20T05:37:27.436Z,13.00
2022-11-20T05:39:54.099Z,17.97
2022-11-20T05:42:33.084Z,14.47
2022-11-20T05:45:00.293Z,14.63
2022-11-20T05:47:28.331Z,16.23
2022-11-20T05:49:54.973Z,15.83
2022-11-20T05:52:21.959Z,14.87
2022-11-20T05:54:48.630Z,15.83
2022-11-20T05:57:15.459Z,16.13
2022-11-20T05:59:42.258Z,15.33
2022-11-20T06:02:08.861Z,15.83
2022-11-20T06:04:35.474Z,20.23
2022-11-20T06:07:02.150Z,21.17
2022-11-20T06:09:28.873Z,17.70
2022-11-20T06:11:55.474Z,17.10
2022-11-20T06:14:22.125Z,16.63
2022-11-20T06:16:48.807Z,13.60
2022-11-20T06:19:16.018Z,17.07
2022-11-20T06:21:42.637Z,15.97
2022-11-20T06:24:12.403Z,16.70
2022-11-20T06:26:39.075Z,16.07
2022-11-20T06:29:05.716Z,17.20
2022-11-20T06:31:35.789Z,19.20
2022-11-20T06:34:02.471Z,17.37
2022-11-20T06:36:29.057Z,18.43
2022-11-20T06:38:55.707Z,17.63
2022-11-20T06:41:24.410Z,18.30
2022-11-20T06:43:51.213Z,17.93
2022-11-20T06:46:19.926Z,14.73
2022-11-20T06:48:47.869Z,17.93
2022-11-20T06:51:15.139Z,18.03
2022-11-20T06:53:42.006Z,16.20
2022-11-20T06:56:08.761Z,15.70
2022-11-20T06:58:36.769Z,16.80
2022-11-20T07:01:06.991Z,19.93
2022-11-20T07:03:34.003Z,19.93
2022-11-20T07:06:02.256Z,18.60
2022-11-20T07:08:29.042Z,21.40
2022-11-20T07:11:02.220Z,24.27
2022-11-20T07:13:29.887Z,25.70
2022-11-20T07:16:01.116Z,28.43
2022-11-20T07:18:27.889Z,27.00
2022-11-20T07:20:54.535Z,21.57
2022-11-20T07:23:21.159Z,26.57
2022-11-20T07:25:47.795Z,20.80
2022-11-20T07:28:14.705Z,19.27
2022-11-20T07:30:41.429Z,19.17
2022-11-20T07:33:08.034Z,21.57
2022-11-20T07:35:34.690Z,17.90
2022-11-20T07:38:01.255Z,20.37
2022-11-20T07:40:28.068Z,17.63
2022-11-20T07:42:56.442Z,18.43
2022-11-20T07:45:24.806Z,19.97
2022-11-20T07:47:52.290Z,23.20
2022-11-20T07:50:20.066Z,20.83
2022-11-20T07:52:46.886Z,20.80
2022-11-20T07:55:14.068Z,22.50
2022-11-20T07:57:40.924Z,28.97
2022-11-20T08:00:10.145Z,31.50
2022-11-20T08:02:40.660Z,27.50
2022-11-20T08:05:08.781Z,24.37
2022-11-20T08:07:43.802Z,20.42
2022-11-20T08:10:14.158Z,25.92
2022-11-20T08:13:11.058Z,28.50
2022-11-20T08:15:39.271Z,27.33
2022-11-20T08:18:31.661Z,28.20
2022-11-20T08:21:02.642Z,29.07
2022-11-20T08:23:29.309Z,47.07
2022-11-20T08:25:55.890Z,36.37
2022-11-20T08:28:22.692Z,48.87
2022-11-20T08:30:50.685Z,43.60
2022-11-20T08:33:18.151Z,40.53
2022-11-20T08:35:44.830Z,41.87
2022-11-20T08:38:11.547Z,42.90
2022-11-20T08:40:38.228Z,50.20
2022-11-20T08:43:05.222Z,35.93
2022-11-20T08:45:34.577Z,29.87
2022-11-20T08:48:03.402Z,34.50
2022-11-20T08:50:32.730Z,30.70
2022-11-20T08:53:06.122Z,46.10
2022-11-20T08:55:33.295Z,33.97
2022-11-20T08:58:04.811Z,31.00
2022-11-20T09:00:31.534Z,28.60
2022-11-20T09:02:59.469Z,35.22
2022-11-20T09:05:26.071Z,28.27
2022-11-20T09:07:52.662Z,34.45
2022-11-20T09:10:24.360Z,34.35
2022-11-20T09:12:52.577Z,33.50
2022-11-20T09:15:19.995Z,32.77
2022-11-20T09:18:01.903Z,42.45
2022-11-20T09:20:30.062Z,42.08
2022-11-20T09:22:57.704Z,31.73
2022-11-20T09:25:24.519Z,31.63
2022-11-20T09:27:58.413Z,29.55
2022-11-20T09:30:25.786Z,31.02
2022-11-20T09:32:52.519Z,26.63
2022-11-20T09:35:19.183Z,24.15
2022-11-20T09:37:46.458Z,26.48
2022-11-20T09:40:28.359Z,23.15
2022-11-20T09:43:23.003Z,23.13
2022-11-20T09:46:17.622Z,23.25
2022-11-20T09:49:18.389Z,22.67
2022-11-20T09:52:13.689Z,18.95
2022-11-20T09:54:41.887Z,20.80
2022-11-20T09:57:26.210Z,21.65
2022-11-20T09:59:59.930Z,18.20
2022-11-20T10:02:29.305Z,20.13
2022-11-20T10:05:27.843Z,19.90
2022-11-20T10:08:12.289Z,20.13
2022-11-20T10:10:52.268Z,22.00
2022-11-20T10:13:34.475Z,18.75
2022-11-20T10:16:27.421Z,21.17
2022-11-20T10:19:10.498Z,18.00
2022-11-20T10:22:03.121Z,17.33
2022-11-20T10:24:54.451Z,18.35
2022-11-20T10:27:29.872Z,19.13
2022-11-20T10:30:18.558Z,23.38
2022-11-20T10:32:51.868Z,22.15
2022-11-20T10:35:43.432Z,23.50
2022-11-20T10:38:17.412Z,18.38
2022-11-20T10:40:46.929Z,18.95
2022-11-20T10:43:25.894Z,21.33
2022-11-20T10:46:03.564Z,21.08
2022-11-20T10:48:32.783Z,21.52
2022-11-20T10:51:20.797Z,21.27
2022-11-20T10:53:47.417Z,18.35
2022-11-20T10:56:32.255Z,21.08
2022-11-20T10:59:07.782Z,19.02
2022-11-20T11:01:42.561Z,20.52
2022-11-20T11:04:41.652Z,23.73
2022-11-20T11:07:28.717Z,19.98
2022-11-20T11:09:57.017Z,20.40
2022-11-20T11:12:26.409Z,18.58
2022-11-20T11:14:56.212Z,19.70
2022-11-20T11:17:31.500Z,17.98
2022-11-20T11:20:18.022Z,21.35
2022-11-20T11:22:56.554Z,28.95
2022-11-20T11:25:28.241Z,17.85
2022-11-20T11:27:58.058Z,19.30
2022-11-20T11:30:26.437Z,20.90
2022-11-20T11:33:05.617Z,24.27
2022-11-20T11:35:32.320Z,26.85
2022-11-20T11:38:14.815Z,23.05
2022-11-20T11:40:41.836Z,20.35
2022-11-20T11:43:38.670Z,19.73
2022-11-20T11:46:28.999Z,17.73
2022-11-20T11:49:06.114Z,18.38
2022-11-20T11:51:39.749Z,14.88
2022-11-20T11:54:18.656Z,15.20
2022-11-20T11:56:46.568Z,11.40
2022-11-20T11:59:23.139Z,10.45
2022-11-20T12:02:00.095Z,10.13
2022-11-20T12:04:51.564Z,10.50
2022-11-20T12:07:47.029Z,9.07
2022-11-20T12:10:23.465Z,10.57
2022-11-20T12:12:59.550Z,12.48
2022-11-20T12:15:35.027Z,11.15
2022-11-20T12:18:02.150Z,10.40
2022-11-20T12:20:41.839Z,13.17
2022-11-20T12:23:37.163Z,13.00
2022-11-20T12:26:29.201Z,10.98
2022-11-20T12:29:19.511Z,13.18
2022-11-20T12:32:01.562Z,15.95
2022-11-20T12:34:55.654Z,12.82
2022-11-20T12:37:31.763Z,13.32
2022-11-20T12:40:14.693Z,16.13
2022-11-20T12:43:35.825Z,14.20
2022-11-20T12:46:33.271Z,15.10
2022-11-20T12:49:08.639Z,13.82
2022-11-20T12:51:48.965Z,13.95
2022-11-20T12:54:28.565Z,17.42
2022-11-20T12:57:19.448Z,14.65
2022-11-20T13:00:11.706Z,16.58
2022-11-20T13:02:59.805Z,17.27
2022-11-20T13:05:58.355Z,19.50
2022-11-20T13:08:43.008Z,17.08
2022-11-20T13:11:33.261Z,14.98
2022-11-20T13:13:59.855Z,15.30
2022-11-20T13:16:34.640Z,15.57
2022-11-20T13:19:13.901Z,17.20
2022-11-20T13:21:50.259Z,16.73
2022-11-20T13:24:20.022Z,16.45
2022-11-20T13:26:47.760Z,21.27
2022-11-20T13:29:19.591Z,17.23
2022-11-20T13:31:48.214Z,13.93
2022-11-20T13:34:25.098Z,18.80
2022-11-20T13:36:57.123Z,14.93
2022-11-20T13:39:31.073Z,16.75
2022-11-20T13:42:02.757Z,17.95
2022-11-20T13:44:45.350Z,17.90
2022-11-20T13:47:23.856Z,18.10
2022-11-20T13:49:52.021Z,15.85
2022-11-20T13:52:46.392Z,18.60
2022-11-20T13:55:32.066Z,18.00
2022-11-20T13:58:42.842Z,21.63
2022-11-20T14:01:14.967Z,20.88
2022-11-20T14:04:05.019Z,20.63
2022-11-20T14:06:35.581Z,21.80
2022-11-20T14:09:02.193Z,17.60
2022-11-20T14:11:30.705Z,18.67
2022-11-20T14:14:02.722Z,20.88
2022-11-20T14:16:32.189Z,19.33
2022-11-20T14:19:17.984Z,19.60
2022-11-20T14:21:44.707Z,19.85
2022-11-20T14:24:13.126Z,20.83
2022-11-20T14:26:44.784Z,18.55
2022-11-20T14:29:18.547Z,24.77
2022-11-20T14:31:52.713Z,23.90
2022-11-20T14:34:26.801Z,28.65
2022-11-20T14:36:58.356Z,26.00
2022-11-20T14:39:33.007Z,29.25
2022-11-20T14:41:59.786Z,32.53
2022-11-20T14:44:33.341Z,31.08
2022-11-20T14:47:02.795Z,39.40
2022-11-20T14:49:31.694Z,35.58
2022-11-20T14:52:10.363Z,34.22
2022-11-20T14:54:45.664Z,35.35
2022-11-20T14:57:23.274Z,37.20
2022-11-20T14:59:49.875Z,36.60
2022-11-20T15:02:17.476Z,32.17
2022-11-20T15:04:48.988Z,36.17
2022-11-20T15:07:27.481Z,33.67
2022-11-20T15:10:05.984Z,36.63
2022-11-20T15:12:35.489Z,39.20
2022-11-20T15:15:04.264Z,38.25
2022-11-20T15:17:32.462Z,31.20
2022-11-20T15:20:02.845Z,35.13
2022-11-20T15:22:29.478Z,35.28
2022-11-20T15:24:56.168Z,32.72
2022-11-20T15:27:22.897Z,31.00
2022-11-20T15:29:49.500Z,31.90
2022-11-20T15:32:16.170Z,28.38
2022-11-20T15:34:42.926Z,31.13
2022-11-20T15:37:09.592Z,30.95
2022-11-20T15:39:36.245Z,31.05
2022-11-20T15:42:02.881Z,32.33
2022-11-20T15:44:29.497Z,30.20
2022-11-20T15:46:56.155Z,32.85
2022-11-20T15:49:24.582Z,31.65
2022-11-20T15:51:53.468Z,33.92
2022-11-20T15:54:23.532Z,38.10
2022-11-20T15:56:53.125Z,32.35
2022-11-20T15:59:20.123Z,32.47
2022-11-20T16:01:47.194Z,31.60
2022-11-20T16:04:16.121Z,30.35
2022-11-20T16:06:43.298Z,30.80
2022-11-20T16:09:10.514Z,28.17
2022-11-20T16:11:38.338Z,27.73
2022-11-20T16:14:25.209Z,32.78
2022-11-20T16:16:52.208Z,29.88
2022-11-20T16:19:19.452Z,32.67
2022-11-20T16:21:46.219Z,31.70
2022-11-20T16:24:14.626Z,32.42
2022-11-20T16:26:42.067Z,29.52
2022-11-20T16:29:09.259Z,26.48
2022-11-20T16:31:36.069Z,25.75
2022-11-20T16:34:12.031Z,24.20
2022-11-20T16:36:43.337Z,30.17
2022-11-20T16:39:10.407Z,29.80
2022-11-20T16:41:37.402Z,27.20
2022-11-20T16:44:08.540Z,24.38
2022-11-20T16:46:35.475Z,24.52
2022-11-20T16:49:05.221Z,22.15
2022-11-20T16:51:35.956Z,28.00
2022-11-20T16:54:07.110Z,29.02
2022-11-20T16:56:33.822Z,25.33
2022-11-20T16:59:01.073Z,25.95
2022-11-20T17:01:29.083Z,25.70
2022-11-20T17:04:04.563Z,25.80
2022-11-20T17:06:36.881Z,27.92
2022-11-20T17:09:04.525Z,27.13
2022-11-20T17:11:31.252Z,26.83
2022-11-20T17:14:00.532Z,24.55
2022-11-20T17:16:27.453Z,24.88
2022-11-20T17:19:02.883Z,23.98
2022-11-20T17:21:31.527Z,27.92
2022-11-20T17:24:03.134Z,29.20
2022-11-20T17:26:30.644Z,28.17
2022-11-20T17:29:03.201Z,26.88
2022-11-20T17:31:31.364Z,28.95
2022-11-20T17:34:00.325Z,26.88
2022-11-20T17:36:28.095Z,31.45
2022-11-20T17:38:55.023Z,28.48
2022-11-20T17:41:23.138Z,24.10
2022-11-20T17:43:52.888Z,31.45
2022-11-20T17:46:21.846Z,29.75
2022-11-20T17:48:49.521Z,29.48
2022-11-20T17:51:18.941Z,28.27
2022-11-20T17:53:48.718Z,27.40
2022-11-20T17:56:34.738Z,27.35
2022-11-20T17:59:04.639Z,29.92
2022-11-20T18:01:31.560Z,27.90
2022-11-20T18:03:58.661Z,31.52
2022-11-20T18:06:26.769Z,29.70
2022-11-20T18:08:53.680Z,31.80
2022-11-20T18:11:23.261Z,30.55
2022-11-20T18:14:14.248Z,28.67
2022-11-20T18:16:46.965Z,32.65
2022-11-20T18:19:18.015Z,32.90
2022-11-20T18:21:44.722Z,31.48
2022-11-20T18:24:11.380Z,28.50
2022-11-20T18:26:43.880Z,34.35
2022-11-20T18:29:12.017Z,30.42
2022-11-20T18:31:38.963Z,31.95
2022-11-20T18:34:06.700Z,32.13
2022-11-20T18:36:33.417Z,31.02
2022-11-20T18:39:01.597Z,34.40
2022-11-20T18:41:49.413Z,32.30
2022-11-20T18:44:37.386Z,34.17
2022-11-20T18:47:13.769Z,30.23
2022-11-20T18:49:42.260Z,34.55
2022-11-20T18:52:08.891Z,31.55
2022-11-20T18:54:36.922Z,34.20
2022-11-20T18:57:04.717Z,30.95
2022-11-20T18:59:31.902Z,36.55
2022-11-20T19:01:58.860Z,36.25
2022-11-20T19:04:25.839Z,33.50
2022-11-20T19:06:55.991Z,31.73
2022-11-20T19:09:24.238Z,29.98
2022-11-20T19:11:51.344Z,31.60
2022-11-20T19:14:18.309Z,33.15
2022-11-20T19:16:44.992Z,32.08
2022-11-20T19:19:11.919Z,29.73
2022-11-20T19:21:38.598Z,28.65
2022-11-20T19:24:05.389Z,27.88
2022-11-20T19:26:34.081Z,28.27
2022-11-20T19:29:00.762Z,22.65
2022-11-20T19:31:27.513Z,23.10
2022-11-20T19:34:00.009Z,21.27
2022-11-20T19:36:45.265Z,24.35
2022-11-20T19:39:12.336Z,25.42
2022-11-20T19:41:40.271Z,20.67
2022-11-20T19:44:12.452Z,22.30
2022-11-20T19:46:39.804Z,19.63
2022-11-20T19:49:10.043Z,17.95
2022-11-20T19:51:38.070Z,16.27
2022-11-20T19:54:05.569Z,16.05
2022-11-20T19:56:33.544Z,13.70
2022-11-20T19:59:00.590Z,16.20
2022-11-20T20:01:30.325Z,16.27
2022-11-20T20:04:02.319Z,17.87
2022-11-20T20:06:30.147Z,25.80
2022-11-20T20:09:02.165Z,21.00
2022-11-20T20:11:30.795Z,18.27
2022-11-20T20:13:58.988Z,17.55
2022-11-20T20:16:26.540Z,16.10
2022-11-20T20:19:01.738Z,16.88
2022-11-20T20:21:30.418Z,20.90
2022-11-20T20:23:58.104Z,16.40
2022-11-20T20:26:26.468Z,18.98
2022-11-20T20:28:53.230Z,16.20
2022-11-20T20:31:25.761Z,17.83
2022-11-20T20:33:52.598Z,18.13
2022-11-20T20:36:20.615Z,18.13
2022-11-20T20:38:48.070Z,18.67
2022-11-20T20:41:18.372Z,22.10
2022-11-20T20:44:03.536Z,19.67
2022-11-20T20:46:30.236Z,18.38
2022-11-20T20:48:56.847Z,18.75
2022-11-20T20:51:23.636Z,18.43
2022-11-20T20:53:50.449Z,22.05
2022-11-20T20:56:17.716Z,18.27
2022-11-20T20:58:44.663Z,19.20
2022-11-20T21:01:14.298Z,18.63
2022-11-20T21:03:41.439Z,18.17
2022-11-20T21:06:09.791Z,20.90
2022-11-20T21:08:40.107Z,22.55
2022-11-20T21:11:16.444Z,20.63
2022-11-20T21:13:44.570Z,17.35
2022-11-20T21:16:12.796Z,20.30
2022-11-20T21:18:39.657Z,20.02
2022-11-20T21:21:26.838Z,19.38
2022-11-20T21:23:53.719Z,18.80
2022-11-20T21:26:20.845Z,19.30
2022-11-20T21:28:47.912Z,21.10
2022-11-20T21:31:17.243Z,20.98
2022-11-20T21:33:46.744Z,21.85
2022-11-20T21:36:17.157Z,21.40
2022-11-20T21:38:44.670Z,19.95
2022-11-20T21:41:13.167Z,20.92
2022-11-20T21:43:40.365Z,24.17
2022-11-20T21:46:09.273Z,21.95
2022-11-20T21:48:39.603Z,22.23
2022-11-20T21:51:14.506Z,22.83
2022-11-20T21:53:41.729Z,21.08
2022-11-20T21:56:09.915Z,18.02
2022-11-20T21:58:37.956Z,19.77
2022-11-20T22:01:13.168Z,22.70
2022-11-20T22:03:40.474Z,22.10
2022-11-20T22:06:08.776Z,21.88
2022-11-20T22:08:36.787Z,25.35
2022-11-20T22:11:07.166Z,23.10
2022-11-20T22:13:52.576Z,23.38
2022-11-20T22:16:19.322Z,23.38
2022-11-20T22:18:51.837Z,24.23
2022-11-20T22:21:20.692Z,23.63
2022-11-20T22:23:47.688Z,20.40
2022-11-20T22:26:20.083Z,24.13
2022-11-20T22:28:48.620Z,23.05
2022-11-20T22:31:16.476Z,21.63
2022-11-20T22:33:43.353Z,25.60
2022-11-20T22:36:12.844Z,23.92
2022-11-20T22:38:40.138Z,25.00
2022-11-20T22:41:09.628Z,24.98
2022-11-20T22:43:36.725Z,25.25
2022-11-20T22:46:14.576Z,24.02
2022-11-20T22:48:44.461Z,24.17
2022-11-20T22:51:13.693Z,26.15
2022-11-20T22:53:42.032Z,21.00
2022-11-20T22:56:10.471Z,24.80
2022-11-20T22:58:38.770Z,23.70
2022-11-20T23:01:17.424Z,23.08
2022-11-20T23:03:46.500Z,22.02
2022-11-20T23:06:13.846Z,22.63
2022-11-20T23:08:41.604Z,26.45
2022-11-20T23:11:11.665Z,21.00
2022-11-20T23:13:38.827Z,24.80
2022-11-20T23:16:14.171Z,24.25
2022-11-20T23:18:42.380Z,23.30
2022-11-20T23:21:11.771Z,20.80
2022-11-20T23:23:38.485Z,24.23
2022-11-20T23:26:07.856Z,28.88
2022-11-20T23:28:35.208Z,25.55
2022-11-20T23:31:02.619Z,22.88
2022-11-20T23:33:29.495Z,21.10
2022-11-20T23:35:56.641Z,25.92
2022-11-20T23:38:23.268Z,21.92
2022-11-20T23:40:51.054Z,24.88
2022-11-20T23:43:19.546Z,25.08
2022-11-20T23:45:51.566Z,21.35
2022-11-20T23:48:20.003Z,24.02
2022-11-20T23:50:47.104Z,23.33
2022-11-20T23:53:14.883Z,25.80
2022-11-20T23:55:52.748Z,25.97
2022-11-20T23:58:20.462Z,24.10
